sensor_id;sensor_type;location;lat;lon;timestamp;P1;durP1;ratioP1;P2;durP2;ratioP2
7160;SDS011;3622;53.576;9.978;2023-04-16T00:00:41;45.13;;;17.63;;
7160;SDS011;3622;53.576;9.978;2023-04-16T00:03:07;29.93;;;16.00;;
7160;SDS011;3622;53.576;9.978;2023-04-16T00:05:33;31.83;;;17.87;;
7160;SDS011;3622;53.576;9.978;2023-04-16T00:07:59;30.43;;;17.40;;
7160;SDS011;3622;53.576;9.978;2023-04-16T00:10:25;31.10;;;16.50;;
7160;SDS011;3622;53.576;9.978;2023-04-16T00:12:50;30.90;;;15.70;;
7160;SDS011;3622;53.576;9.978;2023-04-16T00:15:16;30.40;;;16.43;;
7160;SDS011;3622;53.576;9.978;2023-04-16T00:17:42;34.03;;;17.20;;
7160;SDS011;3622;53.576;9.978;2023-04-16T00:20:09;27.93;;;15.07;;
7160;SDS011;3622;53.576;9.978;2023-04-16T00:22:35;29.17;;;16.53;;
7160;SDS011;3622;53.576;9.978;2023-04-16T00:25:01;29.33;;;16.73;;
7160;SDS011;3622;53.576;9.978;2023-04-16T00:27:27;29.70;;;16.60;;
7160;SDS011;3622;53.576;9.978;2023-04-16T00:29:53;31.50;;;17.00;;
7160;SDS011;3622;53.576;9.978;2023-04-16T00:32:19;29.97;;;15.83;;
7160;SDS011;3622;53.576;9.978;2023-04-16T00:34:45;27.70;;;15.87;;
7160;SDS011;3622;53.576;9.978;2023-04-16T00:37:11;30.13;;;15.13;;
7160;SDS011;3622;53.576;9.978;2023-04-16T00:39:37;28.73;;;16.23;;
7160;SDS011;3622;53.576;9.978;2023-04-16T00:42:03;33.70;;;15.03;;
7160;SDS011;3622;53.576;9.978;2023-04-16T00:44:29;27.73;;;15.70;;
7160;SDS011;3622;53.576;9.978;2023-04-16T00:46:55;27.70;;;15.77;;
7160;SDS011;3622;53.576;9.978;2023-04-16T00:49:22;27.40;;;15.57;;
7160;SDS011;3622;53.576;9.978;2023-04-16T00:51:49;30.33;;;16.70;;
7160;SDS011;3622;53.576;9.978;2023-04-16T00:54:15;26.37;;;15.00;;
7160;SDS011;3622;53.576;9.978;2023-04-16T00:56:41;28.20;;;15.90;;
7160;SDS011;3622;53.576;9.978;2023-04-16T00:59:07;29.53;;;15.70;;
7160;SDS011;3622;53.576;9.978;2023-04-16T01:01:33;28.17;;;15.13;;
7160;SDS011;3622;53.576;9.978;2023-04-16T01:03:59;27.50;;;15.23;;
7160;SDS011;3622;53.576;9.978;2023-04-16T01:06:25;26.77;;;14.73;;
7160;SDS011;3622;53.576;9.978;2023-04-16T01:08:51;33.17;;;14.77;;
7160;SDS011;3622;53.576;9.978;2023-04-16T01:11:17;24.30;;;14.47;;
7160;SDS011;3622;53.576;9.978;2023-04-16T01:13:43;25.70;;;14.53;;
7160;SDS011;3622;53.576;9.978;2023-04-16T01:16:10;25.93;;;14.97;;
7160;SDS011;3622;53.576;9.978;2023-04-16T01:18:36;33.47;;;16.00;;
7160;SDS011;3622;53.576;9.978;2023-04-16T01:21:03;18.77;;;11.20;;
7160;SDS011;3622;53.576;9.978;2023-04-16T01:23:29;23.80;;;13.87;;
7160;SDS011;3622;53.576;9.978;2023-04-16T01:25:55;30.67;;;15.13;;
7160;SDS011;3622;53.576;9.978;2023-04-16T01:28:21;29.70;;;14.63;;
7160;SDS011;3622;53.576;9.978;2023-04-16T01:30:47;24.80;;;15.20;;
7160;SDS011;3622;53.576;9.978;2023-04-16T01:33:13;26.57;;;15.00;;
7160;SDS011;3622;53.576;9.978;2023-04-16T01:35:40;28.10;;;14.50;;
7160;SDS011;3622;53.576;9.978;2023-04-16T01:38:06;23.73;;;13.80;;
7160;SDS011;3622;53.576;9.978;2023-04-16T01:40:36;24.17;;;14.37;;
7160;SDS011;3622;53.576;9.978;2023-04-16T01:43:02;24.90;;;13.77;;
7160;SDS011;3622;53.576;9.978;2023-04-16T01:45:32;25.20;;;14.00;;
7160;SDS011;3622;53.576;9.978;2023-04-16T01:47:58;25.63;;;14.13;;
7160;SDS011;3622;53.576;9.978;2023-04-16T01:50:24;26.33;;;14.90;;
7160;SDS011;3622;53.576;9.978;2023-04-16T01:52:50;20.67;;;13.33;;
7160;SDS011;3622;53.576;9.978;2023-04-16T01:55:16;22.87;;;13.33;;
7160;SDS011;3622;53.576;9.978;2023-04-16T01:57:42;28.63;;;15.40;;
7160;SDS011;3622;53.576;9.978;2023-04-16T02:00:08;25.87;;;14.33;;
7160;SDS011;3622;53.576;9.978;2023-04-16T02:02:35;22.93;;;14.10;;
7160;SDS011;3622;53.576;9.978;2023-04-16T02:05:01;22.53;;;13.50;;
7160;SDS011;3622;53.576;9.978;2023-04-16T02:07:27;27.63;;;13.50;;
7160;SDS011;3622;53.576;9.978;2023-04-16T02:09:53;24.57;;;13.97;;
7160;SDS011;3622;53.576;9.978;2023-04-16T02:12:19;19.53;;;12.60;;
7160;SDS011;3622;53.576;9.978;2023-04-16T02:14:45;26.07;;;14.10;;
7160;SDS011;3622;53.576;9.978;2023-04-16T02:17:11;26.97;;;14.50;;
7160;SDS011;3622;53.576;9.978;2023-04-16T02:19:37;23.83;;;13.33;;
7160;SDS011;3622;53.576;9.978;2023-04-16T02:22:03;21.17;;;13.10;;
7160;SDS011;3622;53.576;9.978;2023-04-16T02:24:29;24.83;;;13.80;;
7160;SDS011;3622;53.576;9.978;2023-04-16T02:26:55;25.37;;;13.90;;
7160;SDS011;3622;53.576;9.978;2023-04-16T02:29:22;22.03;;;13.10;;
7160;SDS011;3622;53.576;9.978;2023-04-16T02:31:48;22.73;;;13.47;;
7160;SDS011;3622;53.576;9.978;2023-04-16T02:34:14;24.37;;;14.13;;
7160;SDS011;3622;53.576;9.978;2023-04-16T02:36:40;25.07;;;13.60;;
7160;SDS011;3622;53.576;9.978;2023-04-16T02:39:06;27.43;;;13.60;;
7160;SDS011;3622;53.576;9.978;2023-04-16T02:41:32;26.40;;;14.20;;
7160;SDS011;3622;53.576;9.978;2023-04-16T02:43:58;27.67;;;15.10;;
7160;SDS011;3622;53.576;9.978;2023-04-16T02:46:24;24.73;;;14.50;;
7160;SDS011;3622;53.576;9.978;2023-04-16T02:48:50;32.50;;;16.27;;
7160;SDS011;3622;53.576;9.978;2023-04-16T02:51:17;24.40;;;15.20;;
7160;SDS011;3622;53.576;9.978;2023-04-16T02:53:43;26.70;;;15.80;;
7160;SDS011;3622;53.576;9.978;2023-04-16T02:56:10;32.17;;;15.70;;
7160;SDS011;3622;53.576;9.978;2023-04-16T02:58:36;28.13;;;15.80;;
7160;SDS011;3622;53.576;9.978;2023-04-16T03:01:02;26.83;;;16.10;;
7160;SDS011;3622;53.576;9.978;2023-04-16T03:03:28;27.30;;;14.93;;
7160;SDS011;3622;53.576;9.978;2023-04-16T03:05:53;26.80;;;15.60;;
7160;SDS011;3622;53.576;9.978;2023-04-16T03:08:19;29.60;;;16.37;;
7160;SDS011;3622;53.576;9.978;2023-04-16T03:10:45;30.33;;;16.47;;
7160;SDS011;3622;53.576;9.978;2023-04-16T03:13:11;29.37;;;15.40;;
7160;SDS011;3622;53.576;9.978;2023-04-16T03:15:38;33.30;;;16.40;;
7160;SDS011;3622;53.576;9.978;2023-04-16T03:18:04;31.43;;;16.47;;
7160;SDS011;3622;53.576;9.978;2023-04-16T03:20:30;26.93;;;15.57;;
7160;SDS011;3622;53.576;9.978;2023-04-16T03:22:56;33.80;;;17.37;;
7160;SDS011;3622;53.576;9.978;2023-04-16T03:25:22;32.73;;;16.67;;
7160;SDS011;3622;53.576;9.978;2023-04-16T03:27:48;29.07;;;16.60;;
7160;SDS011;3622;53.576;9.978;2023-04-16T03:30:14;24.77;;;14.43;;
7160;SDS011;3622;53.576;9.978;2023-04-16T03:32:40;33.90;;;17.07;;
7160;SDS011;3622;53.576;9.978;2023-04-16T03:35:07;30.00;;;16.77;;
7160;SDS011;3622;53.576;9.978;2023-04-16T03:37:33;30.27;;;16.10;;
7160;SDS011;3622;53.576;9.978;2023-04-16T03:39:59;31.90;;;15.73;;
7160;SDS011;3622;53.576;9.978;2023-04-16T03:42:25;29.20;;;15.30;;
7160;SDS011;3622;53.576;9.978;2023-04-16T03:44:51;24.40;;;13.93;;
7160;SDS011;3622;53.576;9.978;2023-04-16T03:47:20;29.70;;;15.90;;
7160;SDS011;3622;53.576;9.978;2023-04-16T03:49:46;30.37;;;16.23;;
7160;SDS011;3622;53.576;9.978;2023-04-16T03:52:12;34.23;;;16.17;;
7160;SDS011;3622;53.576;9.978;2023-04-16T03:54:38;35.17;;;17.50;;
7160;SDS011;3622;53.576;9.978;2023-04-16T03:57:04;29.00;;;16.37;;
7160;SDS011;3622;53.576;9.978;2023-04-16T03:59:30;29.30;;;15.77;;
7160;SDS011;3622;53.576;9.978;2023-04-16T04:01:56;32.73;;;16.97;;
7160;SDS011;3622;53.576;9.978;2023-04-16T04:04:22;31.43;;;16.40;;
7160;SDS011;3622;53.576;9.978;2023-04-16T04:06:48;31.30;;;16.50;;
7160;SDS011;3622;53.576;9.978;2023-04-16T04:09:14;27.93;;;16.40;;
7160;SDS011;3622;53.576;9.978;2023-04-16T04:11:40;29.60;;;16.50;;
7160;SDS011;3622;53.576;9.978;2023-04-16T04:14:06;30.80;;;16.90;;
7160;SDS011;3622;53.576;9.978;2023-04-16T04:16:32;26.70;;;15.80;;
7160;SDS011;3622;53.576;9.978;2023-04-16T04:18:58;28.00;;;16.83;;
7160;SDS011;3622;53.576;9.978;2023-04-16T04:21:24;25.90;;;15.80;;
7160;SDS011;3622;53.576;9.978;2023-04-16T04:23:51;28.97;;;16.57;;
7160;SDS011;3622;53.576;9.978;2023-04-16T04:26:17;27.47;;;16.50;;
7160;SDS011;3622;53.576;9.978;2023-04-16T04:28:43;26.80;;;16.33;;
7160;SDS011;3622;53.576;9.978;2023-04-16T04:31:09;28.73;;;15.70;;
7160;SDS011;3622;53.576;9.978;2023-04-16T04:33:35;31.67;;;16.40;;
7160;SDS011;3622;53.576;9.978;2023-04-16T04:36:01;25.43;;;15.20;;
7160;SDS011;3622;53.576;9.978;2023-04-16T04:38:27;29.13;;;16.30;;
7160;SDS011;3622;53.576;9.978;2023-04-16T04:40:54;23.50;;;14.80;;
7160;SDS011;3622;53.576;9.978;2023-04-16T04:43:20;27.47;;;15.30;;
7160;SDS011;3622;53.576;9.978;2023-04-16T04:45:46;25.80;;;14.83;;
7160;SDS011;3622;53.576;9.978;2023-04-16T04:48:13;27.07;;;15.00;;
7160;SDS011;3622;53.576;9.978;2023-04-16T04:50:39;25.23;;;15.90;;
7160;SDS011;3622;53.576;9.978;2023-04-16T04:53:05;24.37;;;14.17;;
7160;SDS011;3622;53.576;9.978;2023-04-16T04:55:37;22.70;;;14.83;;
7160;SDS011;3622;53.576;9.978;2023-04-16T04:58:04;23.50;;;15.10;;
7160;SDS011;3622;53.576;9.978;2023-04-16T05:00:31;24.27;;;14.90;;
7160;SDS011;3622;53.576;9.978;2023-04-16T05:03:00;27.13;;;15.33;;
7160;SDS011;3622;53.576;9.978;2023-04-16T05:05:26;24.00;;;15.07;;
7160;SDS011;3622;53.576;9.978;2023-04-16T05:07:52;26.57;;;15.13;;
7160;SDS011;3622;53.576;9.978;2023-04-16T05:10:18;31.43;;;14.90;;
7160;SDS011;3622;53.576;9.978;2023-04-16T05:12:44;26.57;;;14.50;;
7160;SDS011;3622;53.576;9.978;2023-04-16T05:15:11;26.87;;;15.10;;
7160;SDS011;3622;53.576;9.978;2023-04-16T05:17:37;21.17;;;13.47;;
7160;SDS011;3622;53.576;9.978;2023-04-16T05:20:03;25.93;;;14.90;;
7160;SDS011;3622;53.576;9.978;2023-04-16T05:22:29;25.70;;;14.47;;
7160;SDS011;3622;53.576;9.978;2023-04-16T05:24:55;26.17;;;15.50;;
7160;SDS011;3622;53.576;9.978;2023-04-16T05:27:21;25.77;;;14.30;;
7160;SDS011;3622;53.576;9.978;2023-04-16T05:29:47;26.70;;;15.43;;
7160;SDS011;3622;53.576;9.978;2023-04-16T05:32:13;25.60;;;15.00;;
7160;SDS011;3622;53.576;9.978;2023-04-16T05:34:39;28.23;;;14.70;;
7160;SDS011;3622;53.576;9.978;2023-04-16T05:37:05;31.43;;;17.43;;
7160;SDS011;3622;53.576;9.978;2023-04-16T05:39:31;27.23;;;15.53;;
7160;SDS011;3622;53.576;9.978;2023-04-16T05:41:57;25.63;;;14.87;;
7160;SDS011;3622;53.576;9.978;2023-04-16T05:44:23;25.00;;;15.17;;
7160;SDS011;3622;53.576;9.978;2023-04-16T05:46:49;25.73;;;15.53;;
7160;SDS011;3622;53.576;9.978;2023-04-16T05:49:15;23.47;;;14.67;;
7160;SDS011;3622;53.576;9.978;2023-04-16T05:51:46;26.50;;;14.70;;
7160;SDS011;3622;53.576;9.978;2023-04-16T05:54:12;27.80;;;14.10;;
7160;SDS011;3622;53.576;9.978;2023-04-16T05:56:38;24.80;;;15.03;;
7160;SDS011;3622;53.576;9.978;2023-04-16T05:59:03;26.10;;;14.87;;
7160;SDS011;3622;53.576;9.978;2023-04-16T06:01:30;29.10;;;15.70;;
7160;SDS011;3622;53.576;9.978;2023-04-16T06:03:56;33.17;;;16.43;;
7160;SDS011;3622;53.576;9.978;2023-04-16T06:06:22;24.00;;;15.00;;
7160;SDS011;3622;53.576;9.978;2023-04-16T06:08:48;28.50;;;15.47;;
7160;SDS011;3622;53.576;9.978;2023-04-16T06:11:14;31.00;;;15.30;;
7160;SDS011;3622;53.576;9.978;2023-04-16T06:13:41;27.33;;;15.37;;
7160;SDS011;3622;53.576;9.978;2023-04-16T06:16:07;30.00;;;15.57;;
7160;SDS011;3622;53.576;9.978;2023-04-16T06:18:33;26.60;;;14.90;;
7160;SDS011;3622;53.576;9.978;2023-04-16T06:20:59;25.17;;;15.60;;
7160;SDS011;3622;53.576;9.978;2023-04-16T06:23:25;27.67;;;15.27;;
7160;SDS011;3622;53.576;9.978;2023-04-16T06:25:51;32.20;;;15.43;;
7160;SDS011;3622;53.576;9.978;2023-04-16T06:28:17;31.20;;;16.07;;
7160;SDS011;3622;53.576;9.978;2023-04-16T06:30:43;27.33;;;15.43;;
7160;SDS011;3622;53.576;9.978;2023-04-16T06:33:09;25.90;;;15.37;;
7160;SDS011;3622;53.576;9.978;2023-04-16T06:35:35;25.57;;;14.50;;
7160;SDS011;3622;53.576;9.978;2023-04-16T06:38:01;26.90;;;15.03;;
7160;SDS011;3622;53.576;9.978;2023-04-16T06:40:27;31.40;;;17.43;;
7160;SDS011;3622;53.576;9.978;2023-04-16T06:42:53;27.20;;;15.03;;
7160;SDS011;3622;53.576;9.978;2023-04-16T06:45:19;29.87;;;16.57;;
7160;SDS011;3622;53.576;9.978;2023-04-16T06:47:45;27.53;;;15.60;;
7160;SDS011;3622;53.576;9.978;2023-04-16T06:50:11;25.60;;;14.00;;
7160;SDS011;3622;53.576;9.978;2023-04-16T06:52:38;24.23;;;15.30;;
7160;SDS011;3622;53.576;9.978;2023-04-16T06:55:04;29.00;;;14.53;;
7160;SDS011;3622;53.576;9.978;2023-04-16T06:57:32;28.33;;;15.50;;
7160;SDS011;3622;53.576;9.978;2023-04-16T06:59:58;23.13;;;14.57;;
7160;SDS011;3622;53.576;9.978;2023-04-16T07:02:24;25.73;;;14.90;;
7160;SDS011;3622;53.576;9.978;2023-04-16T07:04:50;30.17;;;15.40;;
7160;SDS011;3622;53.576;9.978;2023-04-16T07:07:16;28.30;;;14.70;;
7160;SDS011;3622;53.576;9.978;2023-04-16T07:09:42;27.97;;;14.80;;
7160;SDS011;3622;53.576;9.978;2023-04-16T07:12:08;38.40;;;16.07;;
7160;SDS011;3622;53.576;9.978;2023-04-16T07:14:35;23.50;;;14.40;;
7160;SDS011;3622;53.576;9.978;2023-04-16T07:17:01;41.17;;;18.40;;
7160;SDS011;3622;53.576;9.978;2023-04-16T07:19:27;31.00;;;13.37;;
7160;SDS011;3622;53.576;9.978;2023-04-16T07:21:56;45.77;;;16.20;;
7160;SDS011;3622;53.576;9.978;2023-04-16T07:24:22;28.13;;;15.27;;
7160;SDS011;3622;53.576;9.978;2023-04-16T07:26:48;27.33;;;14.70;;
7160;SDS011;3622;53.576;9.978;2023-04-16T07:29:14;23.63;;;14.00;;
7160;SDS011;3622;53.576;9.978;2023-04-16T07:31:40;25.50;;;14.97;;
7160;SDS011;3622;53.576;9.978;2023-04-16T07:34:06;26.87;;;14.03;;
7160;SDS011;3622;53.576;9.978;2023-04-16T07:36:32;32.50;;;14.67;;
7160;SDS011;3622;53.576;9.978;2023-04-16T07:38:58;31.47;;;15.87;;
7160;SDS011;3622;53.576;9.978;2023-04-16T07:41:24;30.30;;;15.53;;
7160;SDS011;3622;53.576;9.978;2023-04-16T07:43:50;24.00;;;13.70;;
7160;SDS011;3622;53.576;9.978;2023-04-16T07:46:16;24.00;;;14.70;;
7160;SDS011;3622;53.576;9.978;2023-04-16T07:48:42;27.30;;;14.10;;
7160;SDS011;3622;53.576;9.978;2023-04-16T07:51:08;26.97;;;14.23;;
7160;SDS011;3622;53.576;9.978;2023-04-16T07:53:34;26.20;;;13.00;;
7160;SDS011;3622;53.576;9.978;2023-04-16T07:56:00;24.77;;;14.07;;
7160;SDS011;3622;53.576;9.978;2023-04-16T07:58:26;25.30;;;13.70;;
7160;SDS011;3622;53.576;9.978;2023-04-16T08:00:52;24.60;;;14.10;;
7160;SDS011;3622;53.576;9.978;2023-04-16T08:03:18;26.33;;;14.70;;
7160;SDS011;3622;53.576;9.978;2023-04-16T08:05:44;22.37;;;14.97;;
7160;SDS011;3622;53.576;9.978;2023-04-16T08:08:09;27.80;;;13.37;;
7160;SDS011;3622;53.576;9.978;2023-04-16T08:10:35;23.70;;;13.50;;
7160;SDS011;3622;53.576;9.978;2023-04-16T08:13:01;24.67;;;13.20;;
7160;SDS011;3622;53.576;9.978;2023-04-16T08:15:27;28.00;;;14.13;;
7160;SDS011;3622;53.576;9.978;2023-04-16T08:17:53;26.07;;;13.93;;
7160;SDS011;3622;53.576;9.978;2023-04-16T08:20:19;21.20;;;13.03;;
7160;SDS011;3622;53.576;9.978;2023-04-16T08:22:45;46.43;;;19.40;;
7160;SDS011;3622;53.576;9.978;2023-04-16T08:25:11;23.10;;;13.37;;
7160;SDS011;3622;53.576;9.978;2023-04-16T08:27:37;26.63;;;14.93;;
7160;SDS011;3622;53.576;9.978;2023-04-16T08:30:03;22.43;;;13.00;;
7160;SDS011;3622;53.576;9.978;2023-04-16T08:32:29;16.93;;;11.77;;
7160;SDS011;3622;53.576;9.978;2023-04-16T08:34:56;23.70;;;14.23;;
7160;SDS011;3622;53.576;9.978;2023-04-16T08:37:22;21.50;;;13.93;;
7160;SDS011;3622;53.576;9.978;2023-04-16T08:39:48;22.30;;;13.33;;
7160;SDS011;3622;53.576;9.978;2023-04-16T08:42:27;30.53;;;13.80;;
7160;SDS011;3622;53.576;9.978;2023-04-16T08:44:56;17.47;;;12.23;;
7160;SDS011;3622;53.576;9.978;2023-04-16T08:47:27;22.90;;;13.43;;
7160;SDS011;3622;53.576;9.978;2023-04-16T08:49:53;22.97;;;13.80;;
7160;SDS011;3622;53.576;9.978;2023-04-16T08:52:20;23.20;;;12.60;;
7160;SDS011;3622;53.576;9.978;2023-04-16T08:55:05;23.20;;;12.83;;
7160;SDS011;3622;53.576;9.978;2023-04-16T08:57:38;18.37;;;12.53;;
7160;SDS011;3622;53.576;9.978;2023-04-16T09:00:07;21.47;;;12.87;;
7160;SDS011;3622;53.576;9.978;2023-04-16T09:02:33;24.33;;;15.37;;
7160;SDS011;3622;53.576;9.978;2023-04-16T09:05:00;26.83;;;13.77;;
7160;SDS011;3622;53.576;9.978;2023-04-16T09:07:28;18.03;;;11.07;;
7160;SDS011;3622;53.576;9.978;2023-04-16T09:09:54;20.60;;;13.60;;
7160;SDS011;3622;53.576;9.978;2023-04-16T09:12:23;22.77;;;13.60;;
7160;SDS011;3622;53.576;9.978;2023-04-16T09:14:49;21.13;;;14.43;;
7160;SDS011;3622;53.576;9.978;2023-04-16T09:17:16;18.43;;;12.73;;
7160;SDS011;3622;53.576;9.978;2023-04-16T09:19:43;19.57;;;14.00;;
7160;SDS011;3622;53.576;9.978;2023-04-16T09:22:09;20.87;;;13.23;;
7160;SDS011;3622;53.576;9.978;2023-04-16T09:24:35;23.37;;;14.00;;
7160;SDS011;3622;53.576;9.978;2023-04-16T09:27:02;20.23;;;12.00;;
7160;SDS011;3622;53.576;9.978;2023-04-16T09:29:35;21.47;;;12.90;;
7160;SDS011;3622;53.576;9.978;2023-04-16T09:32:01;26.50;;;12.80;;
7160;SDS011;3622;53.576;9.978;2023-04-16T09:34:28;23.30;;;14.37;;
7160;SDS011;3622;53.576;9.978;2023-04-16T09:36:54;21.00;;;13.57;;
7160;SDS011;3622;53.576;9.978;2023-04-16T09:39:21;23.33;;;12.90;;
7160;SDS011;3622;53.576;9.978;2023-04-16T09:41:47;25.50;;;13.70;;
7160;SDS011;3622;53.576;9.978;2023-04-16T09:44:13;24.67;;;14.03;;
7160;SDS011;3622;53.576;9.978;2023-04-16T09:46:40;24.37;;;16.20;;
7160;SDS011;3622;53.576;9.978;2023-04-16T09:49:09;25.80;;;15.30;;
7160;SDS011;3622;53.576;9.978;2023-04-16T09:51:42;21.53;;;14.17;;
7160;SDS011;3622;53.576;9.978;2023-04-16T09:54:08;24.80;;;15.17;;
7160;SDS011;3622;53.576;9.978;2023-04-16T09:56:44;24.67;;;14.17;;
7160;SDS011;3622;53.576;9.978;2023-04-16T09:59:16;16.53;;;11.37;;
7160;SDS011;3622;53.576;9.978;2023-04-16T10:01:43;24.63;;;13.83;;
7160;SDS011;3622;53.576;9.978;2023-04-16T10:04:13;21.17;;;13.87;;
7160;SDS011;3622;53.576;9.978;2023-04-16T10:06:39;24.57;;;12.97;;
7160;SDS011;3622;53.576;9.978;2023-04-16T10:09:05;17.87;;;12.50;;
7160;SDS011;3622;53.576;9.978;2023-04-16T10:11:32;23.73;;;14.03;;
7160;SDS011;3622;53.576;9.978;2023-04-16T10:13:59;19.77;;;12.97;;
7160;SDS011;3622;53.576;9.978;2023-04-16T10:16:25;29.00;;;14.20;;
7160;SDS011;3622;53.576;9.978;2023-04-16T10:18:52;116.47;;;41.87;;
7160;SDS011;3622;53.576;9.978;2023-04-16T10:21:19;51.50;;;15.37;;
7160;SDS011;3622;53.576;9.978;2023-04-16T10:23:45;39.73;;;15.00;;
7160;SDS011;3622;53.576;9.978;2023-04-16T10:26:13;43.93;;;16.93;;
7160;SDS011;3622;53.576;9.978;2023-04-16T10:28:39;50.40;;;18.30;;
7160;SDS011;3622;53.576;9.978;2023-04-16T10:31:07;56.73;;;25.30;;
7160;SDS011;3622;53.576;9.978;2023-04-16T10:33:34;131.80;;;51.77;;
7160;SDS011;3622;53.576;9.978;2023-04-16T10:38:39;301.20;;;75.97;;
7160;SDS011;3622;53.576;9.978;2023-04-16T10:41:06;349.40;;;75.20;;
7160;SDS011;3622;53.576;9.978;2023-04-16T10:43:38;21.27;;;13.13;;
7160;SDS011;3622;53.576;9.978;2023-04-16T10:46:18;20.27;;;12.70;;
7160;SDS011;3622;53.576;9.978;2023-04-16T10:48:44;20.97;;;13.07;;
7160;SDS011;3622;53.576;9.978;2023-04-16T10:53:48;24.83;;;13.40;;
7160;SDS011;3622;53.576;9.978;2023-04-16T10:56:16;19.97;;;12.67;;
7160;SDS011;3622;53.576;9.978;2023-04-16T10:58:47;25.97;;;14.93;;
7160;SDS011;3622;53.576;9.978;2023-04-16T11:01:13;25.40;;;15.97;;
7160;SDS011;3622;53.576;9.978;2023-04-16T11:03:46;35.23;;;16.60;;
7160;SDS011;3622;53.576;9.978;2023-04-16T11:06:16;22.93;;;14.50;;
7160;SDS011;3622;53.576;9.978;2023-04-16T11:08:43;26.03;;;14.23;;
7160;SDS011;3622;53.576;9.978;2023-04-16T11:11:10;25.63;;;13.93;;
7160;SDS011;3622;53.576;9.978;2023-04-16T11:13:36;22.13;;;13.77;;
7160;SDS011;3622;53.576;9.978;2023-04-16T11:16:03;21.90;;;13.20;;
7160;SDS011;3622;53.576;9.978;2023-04-16T11:18:29;21.80;;;14.30;;
7160;SDS011;3622;53.576;9.978;2023-04-16T11:20:55;23.10;;;13.57;;
7160;SDS011;3622;53.576;9.978;2023-04-16T11:23:21;20.63;;;12.70;;
7160;SDS011;3622;53.576;9.978;2023-04-16T11:25:47;24.20;;;13.13;;
7160;SDS011;3622;53.576;9.978;2023-04-16T11:28:19;18.90;;;12.17;;
7160;SDS011;3622;53.576;9.978;2023-04-16T11:30:45;21.13;;;13.20;;
7160;SDS011;3622;53.576;9.978;2023-04-16T11:33:11;21.50;;;13.27;;
7160;SDS011;3622;53.576;9.978;2023-04-16T11:35:37;31.23;;;16.00;;
7160;SDS011;3622;53.576;9.978;2023-04-16T11:38:04;26.20;;;14.57;;
7160;SDS011;3622;53.576;9.978;2023-04-16T11:40:30;28.80;;;14.47;;
7160;SDS011;3622;53.576;9.978;2023-04-16T11:43:17;23.70;;;14.00;;
7160;SDS011;3622;53.576;9.978;2023-04-16T11:45:58;20.00;;;12.80;;
7160;SDS011;3622;53.576;9.978;2023-04-16T11:48:25;24.77;;;14.70;;
7160;SDS011;3622;53.576;9.978;2023-04-16T11:50:57;23.40;;;13.00;;
7160;SDS011;3622;53.576;9.978;2023-04-16T11:53:23;25.00;;;12.60;;
7160;SDS011;3622;53.576;9.978;2023-04-16T11:55:49;18.50;;;11.77;;
7160;SDS011;3622;53.576;9.978;2023-04-16T11:58:15;16.63;;;10.80;;
7160;SDS011;3622;53.576;9.978;2023-04-16T12:00:41;19.90;;;11.50;;
7160;SDS011;3622;53.576;9.978;2023-04-16T12:03:07;16.63;;;10.53;;
7160;SDS011;3622;53.576;9.978;2023-04-16T12:05:34;17.07;;;11.53;;
7160;SDS011;3622;53.576;9.978;2023-04-16T12:08:03;25.10;;;12.90;;
7160;SDS011;3622;53.576;9.978;2023-04-16T12:10:31;14.27;;;10.43;;
7160;SDS011;3622;53.576;9.978;2023-04-16T12:13:08;17.27;;;11.53;;
7160;SDS011;3622;53.576;9.978;2023-04-16T12:15:48;19.40;;;11.63;;
7160;SDS011;3622;53.576;9.978;2023-04-16T12:18:14;22.47;;;12.77;;
7160;SDS011;3622;53.576;9.978;2023-04-16T12:20:41;22.23;;;14.10;;
7160;SDS011;3622;53.576;9.978;2023-04-16T12:23:07;24.37;;;13.60;;
7160;SDS011;3622;53.576;9.978;2023-04-16T12:25:33;20.47;;;13.17;;
7160;SDS011;3622;53.576;9.978;2023-04-16T12:28:00;21.43;;;13.60;;
7160;SDS011;3622;53.576;9.978;2023-04-16T12:30:27;21.63;;;14.17;;
7160;SDS011;3622;53.576;9.978;2023-04-16T12:33:13;20.67;;;13.60;;
7160;SDS011;3622;53.576;9.978;2023-04-16T12:35:40;21.43;;;12.30;;
7160;SDS011;3622;53.576;9.978;2023-04-16T12:38:07;21.37;;;13.03;;
7160;SDS011;3622;53.576;9.978;2023-04-16T12:40:33;20.47;;;13.10;;
7160;SDS011;3622;53.576;9.978;2023-04-16T12:43:00;19.53;;;12.83;;
7160;SDS011;3622;53.576;9.978;2023-04-16T12:45:26;21.23;;;13.43;;
7160;SDS011;3622;53.576;9.978;2023-04-16T12:47:52;22.13;;;14.00;;
7160;SDS011;3622;53.576;9.978;2023-04-16T12:50:19;20.73;;;13.30;;
7160;SDS011;3622;53.576;9.978;2023-04-16T12:52:45;19.97;;;13.20;;
7160;SDS011;3622;53.576;9.978;2023-04-16T12:55:11;19.30;;;12.70;;
7160;SDS011;3622;53.576;9.978;2023-04-16T12:57:38;18.60;;;12.10;;
7160;SDS011;3622;53.576;9.978;2023-04-16T13:00:04;19.17;;;13.13;;
7160;SDS011;3622;53.576;9.978;2023-04-16T13:02:30;16.97;;;12.27;;
7160;SDS011;3622;53.576;9.978;2023-04-16T13:04:57;19.13;;;11.97;;
7160;SDS011;3622;53.576;9.978;2023-04-16T13:07:22;20.83;;;11.57;;
7160;SDS011;3622;53.576;9.978;2023-04-16T13:09:50;22.77;;;13.10;;
7160;SDS011;3622;53.576;9.978;2023-04-16T13:12:17;22.33;;;12.10;;
7160;SDS011;3622;53.576;9.978;2023-04-16T13:14:43;28.33;;;13.17;;
7160;SDS011;3622;53.576;9.978;2023-04-16T13:17:09;18.70;;;11.90;;
7160;SDS011;3622;53.576;9.978;2023-04-16T13:19:35;22.80;;;12.70;;
7160;SDS011;3622;53.576;9.978;2023-04-16T13:22:01;19.77;;;13.10;;
7160;SDS011;3622;53.576;9.978;2023-04-16T13:24:27;21.27;;;12.30;;
7160;SDS011;3622;53.576;9.978;2023-04-16T13:26:53;20.03;;;12.97;;
7160;SDS011;3622;53.576;9.978;2023-04-16T13:29:20;17.80;;;11.60;;
7160;SDS011;3622;53.576;9.978;2023-04-16T13:31:46;25.47;;;13.60;;
7160;SDS011;3622;53.576;9.978;2023-04-16T13:34:12;20.80;;;12.37;;
7160;SDS011;3622;53.576;9.978;2023-04-16T13:36:38;20.67;;;12.80;;
7160;SDS011;3622;53.576;9.978;2023-04-16T13:39:04;24.53;;;13.70;;
7160;SDS011;3622;53.576;9.978;2023-04-16T13:41:34;19.30;;;12.53;;
7160;SDS011;3622;53.576;9.978;2023-04-16T13:44:00;24.87;;;13.13;;
7160;SDS011;3622;53.576;9.978;2023-04-16T13:46:26;18.67;;;12.70;;
7160;SDS011;3622;53.576;9.978;2023-04-16T13:48:53;75.73;;;36.20;;
7160;SDS011;3622;53.576;9.978;2023-04-16T13:51:19;23.70;;;14.73;;
7160;SDS011;3622;53.576;9.978;2023-04-16T13:53:45;27.83;;;14.27;;
7160;SDS011;3622;53.576;9.978;2023-04-16T13:56:11;23.93;;;14.00;;
7160;SDS011;3622;53.576;9.978;2023-04-16T13:58:37;22.80;;;14.13;;
7160;SDS011;3622;53.576;9.978;2023-04-16T14:01:04;22.50;;;13.20;;
7160;SDS011;3622;53.576;9.978;2023-04-16T14:03:30;23.00;;;13.63;;
7160;SDS011;3622;53.576;9.978;2023-04-16T14:05:59;21.90;;;13.90;;
7160;SDS011;3622;53.576;9.978;2023-04-16T14:08:25;23.37;;;15.00;;
7160;SDS011;3622;53.576;9.978;2023-04-16T14:10:51;25.90;;;13.33;;
7160;SDS011;3622;53.576;9.978;2023-04-16T14:13:17;20.17;;;13.60;;
7160;SDS011;3622;53.576;9.978;2023-04-16T14:15:43;20.90;;;13.87;;
7160;SDS011;3622;53.576;9.978;2023-04-16T14:18:09;20.53;;;13.70;;
7160;SDS011;3622;53.576;9.978;2023-04-16T14:20:35;26.03;;;14.10;;
7160;SDS011;3622;53.576;9.978;2023-04-16T14:23:03;21.37;;;14.07;;
7160;SDS011;3622;53.576;9.978;2023-04-16T14:25:29;20.30;;;12.73;;
7160;SDS011;3622;53.576;9.978;2023-04-16T14:27:55;19.13;;;12.50;;
7160;SDS011;3622;53.576;9.978;2023-04-16T14:30:21;21.50;;;14.23;;
7160;SDS011;3622;53.576;9.978;2023-04-16T14:32:47;18.80;;;12.87;;
7160;SDS011;3622;53.576;9.978;2023-04-16T14:35:13;18.67;;;12.63;;
7160;SDS011;3622;53.576;9.978;2023-04-16T14:37:40;17.67;;;12.90;;
7160;SDS011;3622;53.576;9.978;2023-04-16T14:40:06;20.67;;;12.50;;
7160;SDS011;3622;53.576;9.978;2023-04-16T14:42:32;17.60;;;11.90;;
7160;SDS011;3622;53.576;9.978;2023-04-16T14:45:00;19.53;;;13.27;;
7160;SDS011;3622;53.576;9.978;2023-04-16T14:47:26;19.93;;;13.50;;
7160;SDS011;3622;53.576;9.978;2023-04-16T14:49:52;23.97;;;14.30;;